Time;durP1;ratioP1;P1;durP2;ratioP2;P2;SDS_P1;SDS_P2;PMS_P1;PMS_P2;Temp;Humidity;BMP_temperature;BMP_pressure;BME280_temperature;BME280_humidity;BME280_pressure;Samples;Min_cycle;Max_cycle;Signal;HPM_P1;HPM_P2
2022/03/30 00:00:12;;;;;;;80.75;45.58;;;;;;;;;;5034009;28;20018;-62
2022/03/30 00:02:38;;;;;;;86.68;46.67;;;;;;;;;;5034380;28;20033;-62
2022/03/30 00:05:04;;;;;;;77.57;44.33;;;;;;;;;;5034840;28;20060;-61
2022/03/30 00:07:32;;;;;;;75.68;44.97;;;;;;;;;;5033845;28;20013;-60
2022/03/30 00:10:01;;;;;;;76.20;43.47;;;;;;;;;;5033981;28;20030;-60
2022/03/30 00:12:27;;;;;;;60.30;32.80;;;;;;;;;;5033924;28;20029;-60
2022/03/30 00:14:53;;;;;;;63.80;33.58;;;;;;;;;;5034549;28;20030;-62
2022/03/30 00:17:20;;;;;;;57.72;33.45;;;;;;;;;;5034189;28;20022;-59
2022/03/30 00:19:46;;;;;;;58.20;32.67;;;;;;;;;;5034119;28;20490;-59
2022/03/30 00:22:13;;;;;;;58.67;33.85;;;;;;;;;;5033310;28;20029;-59
2022/03/30 00:24:39;;;;;;;75.43;41.03;;;;;;;;;;5033812;28;20029;-61
2022/03/30 00:27:06;;;;;;;69.82;36.50;;;;;;;;;;5033106;28;20123;-62
2022/03/30 00:29:33;;;;;;;65.13;32.65;;;;;;;;;;5034134;28;20149;-59
2022/03/30 00:31:59;;;;;;;63.30;33.80;;;;;;;;;;5033798;28;20378;-61
2022/03/30 00:34:25;;;;;;;57.42;34.08;;;;;;;;;;5033496;28;20066;-61
2022/03/30 00:36:51;;;;;;;61.05;33.67;;;;;;;;;;5033785;28;20028;-60
2022/03/30 00:39:17;;;;;;;63.22;33.67;;;;;;;;;;5033747;28;20017;-63
2022/03/30 00:41:44;;;;;;;60.63;33.40;;;;;;;;;;5033678;28;20025;-60
2022/03/30 00:44:11;;;;;;;58.35;31.85;;;;;;;;;;5033896;28;20036;-58
2022/03/30 00:46:37;;;;;;;57.97;32.80;;;;;;;;;;5033904;28;20021;-61
2022/03/30 00:49:04;;;;;;;56.50;31.55;;;;;;;;;;5033366;28;20029;-61
2022/03/30 00:51:30;;;;;;;59.45;32.13;;;;;;;;;;5033738;28;20076;-61
2022/03/30 00:53:57;;;;;;;78.82;42.92;;;;;;;;;;5033717;28;20051;-62
2022/03/30 00:56:24;;;;;;;86.50;49.50;;;;;;;;;;5033345;28;20028;-63
2022/03/30 00:58:50;;;;;;;82.72;47.22;;;;;;;;;;5034137;28;20482;-60
2022/03/30 01:01:17;;;;;;;84.32;44.08;;;;;;;;;;5033031;28;20021;-57
2022/03/30 01:03:43;;;;;;;78.80;43.00;;;;;;;;;;5033303;28;20049;-61
2022/03/30 01:06:09;;;;;;;74.03;39.40;;;;;;;;;;5033568;28;20021;-61
2022/03/30 01:08:35;;;;;;;68.32;36.40;;;;;;;;;;5033200;28;20469;-60
2022/03/30 01:11:02;;;;;;;71.40;40.42;;;;;;;;;;5033151;28;20474;-61
2022/03/30 01:13:28;;;;;;;92.30;51.63;;;;;;;;;;5033581;28;20121;-59
2022/03/30 01:15:54;;;;;;;98.80;52.92;;;;;;;;;;5031974;28;20461;-61
2022/03/30 01:18:21;;;;;;;99.78;52.95;;;;;;;;;;5033488;28;20029;-60
2022/03/30 01:20:50;;;;;;;83.68;48.45;;;;;;;;;;5033505;28;20026;-61
2022/03/30 01:23:17;;;;;;;86.18;44.47;;;;;;;;;;5033121;28;20018;-59
2022/03/30 01:25:43;;;;;;;88.80;47.13;;;;;;;;;;5033331;28;20026;-61
2022/03/30 01:28:09;;;;;;;84.15;45.17;;;;;;;;;;5033091;28;20470;-60
2022/03/30 01:33:20;;;;;;;84.47;47.67;;;;;;;;;;5033054;28;20033;-61
2022/03/30 01:35:46;;;;;;;84.13;46.83;;;;;;;;;;5037154;28;20021;-61
2022/03/30 01:38:13;;;;;;;85.05;46.58;;;;;;;;;;5036525;28;20025;-60
2022/03/30 01:40:39;;;;;;;76.53;45.00;;;;;;;;;;5036795;28;20082;-58
2022/03/30 01:43:05;;;;;;;83.70;44.30;;;;;;;;;;5037034;28;20014;-60
2022/03/30 01:45:31;;;;;;;79.28;43.90;;;;;;;;;;5037088;28;20080;-62
2022/03/30 01:48:00;;;;;;;78.43;39.45;;;;;;;;;;5036932;28;20031;-61
2022/03/30 01:50:27;;;;;;;70.05;37.75;;;;;;;;;;5036547;28;20037;-60
2022/03/30 01:52:53;;;;;;;73.63;36.97;;;;;;;;;;5036630;28;20454;-59
2022/03/30 01:55:20;;;;;;;68.70;36.92;;;;;;;;;;5036889;28;20033;-59
2022/03/30 01:57:46;;;;;;;73.65;34.33;;;;;;;;;;5036492;28;20076;-61
2022/03/30 02:00:14;;;;;;;69.10;34.13;;;;;;;;;;5036670;28;20083;-61
2022/03/30 02:02:40;;;;;;;68.13;34.35;;;;;;;;;;5036404;28;20339;-61
2022/03/30 02:05:08;;;;;;;85.07;45.22;;;;;;;;;;5035816;28;20119;-58
2022/03/30 02:07:35;;;;;;;79.07;41.00;;;;;;;;;;5036618;28;20026;-61
2022/03/30 02:10:01;;;;;;;62.88;31.05;;;;;;;;;;5035836;28;20033;-59
2022/03/30 02:12:27;;;;;;;78.57;40.58;;;;;;;;;;5036161;28;20371;-60
2022/03/30 02:14:54;;;;;;;66.45;36.22;;;;;;;;;;5036470;28;20112;-63
2022/03/30 02:17:20;;;;;;;73.60;42.55;;;;;;;;;;5036484;28;20022;-61
2022/03/30 02:19:47;;;;;;;79.88;42.30;;;;;;;;;;5036318;28;20421;-61
2022/03/30 02:22:13;;;;;;;74.53;40.90;;;;;;;;;;5036286;28;20080;-62
2022/03/30 02:24:39;;;;;;;78.53;41.05;;;;;;;;;;5035894;28;20542;-61
2022/03/30 02:27:06;;;;;;;78.70;38.90;;;;;;;;;;5036171;28;20027;-58
2022/03/30 02:29:34;;;;;;;78.05;40.08;;;;;;;;;;5035981;28;20080;-59
2022/03/30 02:32:00;;;;;;;90.93;41.22;;;;;;;;;;5036183;28;20029;-62
2022/03/30 02:34:27;;;;;;;90.63;45.15;;;;;;;;;;5035601;28;20351;-59
2022/03/30 02:36:53;;;;;;;76.50;43.40;;;;;;;;;;5035796;28;20029;-60
2022/03/30 02:39:19;;;;;;;79.18;45.05;;;;;;;;;;5035735;28;20418;-61
2022/03/30 02:41:46;;;;;;;84.47;44.58;;;;;;;;;;5034935;28;20466;-61
2022/03/30 02:44:13;;;;;;;91.25;50.53;;;;;;;;;;5035928;28;20120;-61
2022/03/30 02:46:39;;;;;;;97.75;51.60;;;;;;;;;;5034599;28;20071;-60
2022/03/30 02:49:06;;;;;;;86.50;50.97;;;;;;;;;;5035907;28;20025;-59
2022/03/30 02:51:32;;;;;;;95.88;51.53;;;;;;;;;;5035782;28;20090;-59
2022/03/30 02:53:58;;;;;;;85.13;48.65;;;;;;;;;;5035248;28;20056;-61
2022/03/30 02:56:24;;;;;;;86.38;43.58;;;;;;;;;;5035383;28;20466;-60
2022/03/30 02:58:50;;;;;;;88.10;43.40;;;;;;;;;;5035730;28;20480;-62
2022/03/30 03:01:16;;;;;;;80.88;43.40;;;;;;;;;;5035354;28;20514;-60
2022/03/30 03:03:43;;;;;;;67.32;38.50;;;;;;;;;;5035521;28;20058;-61
2022/03/30 03:06:09;;;;;;;68.57;36.72;;;;;;;;;;5035532;28;20029;-62
2022/03/30 03:08:35;;;;;;;74.50;36.63;;;;;;;;;;5034871;28;20098;-60
2022/03/30 03:11:01;;;;;;;70.82;37.75;;;;;;;;;;5035114;28;20022;-61
2022/03/30 03:13:27;;;;;;;76.38;40.05;;;;;;;;;;5035693;28;20033;-61
2022/03/30 03:15:54;;;;;;;51.63;28.52;;;;;;;;;;5034815;28;20017;-59
2022/03/30 03:18:20;;;;;;;53.78;27.70;;;;;;;;;;5035103;28;20067;-60
2022/03/30 03:20:47;;;;;;;56.42;28.25;;;;;;;;;;5035019;28;20120;-60
2022/03/30 03:23:13;;;;;;;54.25;28.63;;;;;;;;;;5034981;28;20037;-60
2022/03/30 03:25:40;;;;;;;59.42;32.92;;;;;;;;;;5035181;28;20021;-60
2022/03/30 03:28:08;;;;;;;65.10;32.92;;;;;;;;;;5034541;28;20100;-62
2022/03/30 03:30:34;;;;;;;85.90;41.65;;;;;;;;;;5035041;28;20065;-60
2022/03/30 03:33:01;;;;;;;112.28;50.22;;;;;;;;;;5035092;28;20513;-58
2022/03/30 03:35:28;;;;;;;111.85;52.20;;;;;;;;;;5034748;28;20025;-61
2022/03/30 03:37:55;;;;;;;90.32;43.10;;;;;;;;;;5034740;28;20029;-59
2022/03/30 03:40:21;;;;;;;78.18;39.97;;;;;;;;;;5034644;28;20025;-62
2022/03/30 03:42:48;;;;;;;79.32;39.42;;;;;;;;;;5034558;28;20028;-62
2022/03/30 03:45:15;;;;;;;80.50;38.28;;;;;;;;;;5034551;28;20473;-60
2022/03/30 03:47:41;;;;;;;79.10;42.45;;;;;;;;;;5034826;28;20017;-61
2022/03/30 03:50:10;;;;;;;78.25;40.47;;;;;;;;;;5034074;28;20470;-60
2022/03/30 03:52:36;;;;;;;68.03;35.88;;;;;;;;;;5034853;28;20466;-61
2022/03/30 03:55:03;;;;;;;69.25;36.58;;;;;;;;;;5034330;28;20033;-62
2022/03/30 03:57:32;;;;;;;70.97;37.45;;;;;;;;;;5034084;28;20044;-60
2022/03/30 03:59:58;;;;;;;95.70;46.33;;;;;;;;;;5034255;28;20414;-58
2022/03/30 04:02:24;;;;;;;79.60;40.55;;;;;;;;;;5034186;28;20445;-61
2022/03/30 04:04:50;;;;;;;75.25;37.13;;;;;;;;;;5034148;28;20087;-62
2022/03/30 04:07:16;;;;;;;73.43;36.28;;;;;;;;;;5035280;28;20022;-61
2022/03/30 04:09:42;;;;;;;79.32;38.38;;;;;;;;;;5033025;28;20048;-58
2022/03/30 04:12:09;;;;;;;73.15;35.70;;;;;;;;;;5034382;28;20030;-60
2022/03/30 04:14:35;;;;;;;81.22;39.10;;;;;;;;;;5034567;28;20044;-59
2022/03/30 04:17:01;;;;;;;87.60;43.03;;;;;;;;;;5033942;28;20474;-60
2022/03/30 04:19:27;;;;;;;96.22;43.97;;;;;;;;;;5033916;28;20108;-57
2022/03/30 04:21:54;;;;;;;95.35;42.30;;;;;;;;;;5034116;28;20022;-58
2022/03/30 04:24:20;;;;;;;93.15;42.35;;;;;;;;;;5033863;28;20481;-60
2022/03/30 04:26:46;;;;;;;93.68;42.42;;;;;;;;;;5034046;28;20522;-59
2022/03/30 04:29:12;;;;;;;97.30;43.65;;;;;;;;;;5033935;28;20568;-59
2022/03/30 04:31:38;;;;;;;95.43;39.83;;;;;;;;;;5033553;28;20494;-61
2022/03/30 04:34:04;;;;;;;82.00;38.92;;;;;;;;;;5033817;28;20021;-61
2022/03/30 04:36:30;;;;;;;79.22;35.53;;;;;;;;;;5033820;28;20033;-59
2022/03/30 04:38:57;;;;;;;80.40;34.58;;;;;;;;;;5033430;28;20018;-59
2022/03/30 04:41:23;;;;;;;83.32;33.45;;;;;;;;;;5034296;28;20033;-58
2022/03/30 04:43:49;;;;;;;94.93;46.97;;;;;;;;;;5033651;28;20490;-60
2022/03/30 04:46:20;;;;;;;112.43;53.13;;;;;;;;;;5032828;28;20033;-61
2022/03/30 04:48:46;;;;;;;94.68;46.85;;;;;;;;;;5033195;28;20109;-61
2022/03/30 04:51:13;;;;;;;91.72;44.70;;;;;;;;;;5032399;28;20033;-59
2022/03/30 04:53:45;;;;;;;93.47;44.97;;;;;;;;;;5032007;28;20021;-62
2022/03/30 04:56:14;;;;;;;103.75;46.80;;;;;;;;;;5033401;28;20032;-62
2022/03/30 04:58:42;;;;;;;104.13;51.20;;;;;;;;;;5033429;28;20489;-64
2022/03/30 05:01:08;;;;;;;102.90;51.72;;;;;;;;;;5033153;28;20037;-59
2022/03/30 05:03:34;;;;;;;111.15;54.15;;;;;;;;;;5033095;28;20132;-58
2022/03/30 05:06:01;;;;;;;103.13;47.28;;;;;;;;;;5033594;28;20029;-59
2022/03/30 05:08:28;;;;;;;98.38;48.40;;;;;;;;;;5029824;28;20021;-61
2022/03/30 05:10:54;;;;;;;105.28;49.03;;;;;;;;;;5037631;28;20032;-60
2022/03/30 05:13:20;;;;;;;96.57;44.75;;;;;;;;;;5035630;28;20029;-57
2022/03/30 05:15:46;;;;;;;90.00;42.97;;;;;;;;;;5037016;28;20024;-61
2022/03/30 05:18:12;;;;;;;101.35;47.22;;;;;;;;;;5037280;28;20021;-60
2022/03/30 05:20:42;;;;;;;96.15;42.97;;;;;;;;;;5037024;28;20377;-59
2022/03/30 05:23:08;;;;;;;97.85;44.97;;;;;;;;;;5037698;28;20087;-55
2022/03/30 05:25:34;;;;;;;85.95;41.97;;;;;;;;;;5037419;28;20037;-57
2022/03/30 05:28:01;;;;;;;89.82;41.30;;;;;;;;;;5036812;28;20465;-58
2022/03/30 05:30:27;;;;;;;88.38;41.22;;;;;;;;;;5036931;28;20038;-57
2022/03/30 05:32:53;;;;;;;80.68;40.80;;;;;;;;;;5036506;28;20024;-56
2022/03/30 05:35:19;;;;;;;84.13;41.05;;;;;;;;;;5034443;28;20024;-58
2022/03/30 05:37:46;;;;;;;101.57;55.13;;;;;;;;;;5035281;28;20067;-60
2022/03/30 05:40:12;;;;;;;97.15;44.90;;;;;;;;;;5035184;28;20182;-59
2022/03/30 05:42:38;;;;;;;86.88;43.90;;;;;;;;;;5034660;28;20030;-59
2022/03/30 05:45:05;;;;;;;86.03;40.38;;;;;;;;;;5034898;28;20029;-59
2022/03/30 05:47:31;;;;;;;82.13;38.95;;;;;;;;;;5036266;28;20347;-56
2022/03/30 05:49:57;;;;;;;72.32;36.30;;;;;;;;;;5035996;28;20030;-55
2022/03/30 05:52:24;;;;;;;65.72;30.50;;;;;;;;;;5036845;28;20029;-60
2022/03/30 05:54:50;;;;;;;76.50;31.45;;;;;;;;;;5035927;28;20053;-57
2022/03/30 05:57:16;;;;;;;65.63;33.95;;;;;;;;;;5035908;28;20095;-55
2022/03/30 05:59:43;;;;;;;61.33;28.83;;;;;;;;;;5036596;28;20061;-57
2022/03/30 06:02:13;;;;;;;69.13;35.03;;;;;;;;;;5036417;28;20021;-60
2022/03/30 06:04:41;;;;;;;80.38;37.30;;;;;;;;;;5037094;28;20144;-61
2022/03/30 06:07:07;;;;;;;82.28;39.33;;;;;;;;;;5036528;28;20083;-59
2022/03/30 06:09:33;;;;;;;61.50;30.02;;;;;;;;;;5035770;28;20045;-59
2022/03/30 06:12:03;;;;;;;52.10;27.02;;;;;;;;;;5036589;28;20029;-55
2022/03/30 06:14:30;;;;;;;71.90;35.13;;;;;;;;;;5036469;28;20037;-58
2022/03/30 06:16:57;;;;;;;66.55;30.73;;;;;;;;;;5036015;28;20044;-57
2022/03/30 06:19:23;;;;;;;70.65;33.67;;;;;;;;;;5036395;28;20135;-58
2022/03/30 06:21:50;;;;;;;74.25;34.10;;;;;;;;;;5036098;28;20060;-59
2022/03/30 06:24:16;;;;;;;58.28;30.35;;;;;;;;;;5036150;28;20028;-61
2022/03/30 06:26:42;;;;;;;55.20;24.95;;;;;;;;;;5036384;28;20430;-59
2022/03/30 06:29:09;;;;;;;60.50;28.88;;;;;;;;;;5036493;28;20036;-59
2022/03/30 06:31:36;;;;;;;52.55;26.92;;;;;;;;;;5036111;28;20098;-59
2022/03/30 06:34:02;;;;;;;59.83;26.95;;;;;;;;;;5036440;28;20470;-60
2022/03/30 06:36:29;;;;;;;58.38;26.65;;;;;;;;;;5036087;28;20069;-60
2022/03/30 06:38:56;;;;;;;51.97;22.75;;;;;;;;;;5036221;28;20013;-61
2022/03/30 06:41:24;;;;;;;43.80;20.83;;;;;;;;;;5035747;28;20053;-61
2022/03/30 06:43:50;;;;;;;52.72;23.23;;;;;;;;;;5036052;28;20048;-59
2022/03/30 06:46:17;;;;;;;44.58;19.98;;;;;;;;;;5035718;28;20029;-59
2022/03/30 06:48:45;;;;;;;46.50;22.38;;;;;;;;;;5035656;28;20021;-62
2022/03/30 06:51:12;;;;;;;55.97;25.60;;;;;;;;;;5035578;28;20033;-61
2022/03/30 06:53:38;;;;;;;43.67;22.80;;;;;;;;;;5036084;28;20026;-62
2022/03/30 06:56:04;;;;;;;50.80;24.05;;;;;;;;;;5035741;28;20021;-60
2022/03/30 06:58:31;;;;;;;53.22;27.35;;;;;;;;;;5035319;28;20084;-61
2022/03/30 07:00:59;;;;;;;57.72;25.27;;;;;;;;;;5035712;28;20088;-60
2022/03/30 07:03:26;;;;;;;50.05;23.35;;;;;;;;;;5035886;28;20437;-60
2022/03/30 07:05:53;;;;;;;52.53;23.27;;;;;;;;;;5035650;28;20029;-61
2022/03/30 07:11:04;;;;;;;52.15;22.13;;;;;;;;;;5035221;28;20458;-59
2022/03/30 07:13:30;;;;;;;44.08;20.52;;;;;;;;;;5035139;28;20021;-62
2022/03/30 07:15:56;;;;;;;40.92;20.23;;;;;;;;;;5035493;28;20021;-61
2022/03/30 07:18:22;;;;;;;44.88;19.50;;;;;;;;;;5035385;28;20029;-60
2022/03/30 07:20:48;;;;;;;38.45;18.63;;;;;;;;;;5035040;28;20083;-60
2022/03/30 07:23:15;;;;;;;32.90;18.58;;;;;;;;;;5050654;28;20025;-61
2022/03/30 07:25:42;;;;;;;42.55;18.52;;;;;;;;;;5035236;28;20056;-63
2022/03/30 07:28:08;;;;;;;32.53;14.52;;;;;;;;;;5035143;28;20129;-61
2022/03/30 07:30:36;;;;;;;35.65;16.65;;;;;;;;;;5035010;28;20065;-61
2022/03/30 07:33:02;;;;;;;45.05;15.00;;;;;;;;;;5034460;28;20026;-62
2022/03/30 07:35:30;;;;;;;38.78;13.50;;;;;;;;;;5034951;28;20028;-61
2022/03/30 07:37:57;;;;;;;29.80;13.15;;;;;;;;;;5034820;28;20020;-61
2022/03/30 07:40:24;;;;;;;38.53;17.45;;;;;;;;;;5034548;28;20336;-62
2022/03/30 07:42:51;;;;;;;36.15;15.93;;;;;;;;;;5034558;28;20056;-62
2022/03/30 07:45:18;;;;;;;43.88;17.90;;;;;;;;;;5034651;28;20017;-61
2022/03/30 07:47:44;;;;;;;46.00;17.77;;;;;;;;;;5034543;28;20033;-60
2022/03/30 07:50:11;;;;;;;59.83;23.23;;;;;;;;;;5034789;28;20072;-61
2022/03/30 07:52:38;;;;;;;29.25;13.85;;;;;;;;;;5050119;28;20466;-62
2022/03/30 07:55:08;;;;;;;36.22;15.50;;;;;;;;;;5034572;28;20033;-61
2022/03/30 07:57:36;;;;;;;41.65;17.25;;;;;;;;;;5034665;28;20032;-60
2022/03/30 08:00:04;;;;;;;28.25;11.98;;;;;;;;;;5034914;28;20032;-61
2022/03/30 08:02:30;;;;;;;34.17;14.77;;;;;;;;;;5034077;28;20022;-61
2022/03/30 08:04:57;;;;;;;39.63;16.27;;;;;;;;;;5034555;28;20041;-61
2022/03/30 08:07:26;;;;;;;36.97;15.63;;;;;;;;;;5029689;28;20014;-60
2022/03/30 08:09:52;;;;;;;37.17;16.52;;;;;;;;;;5030155;28;20588;-61
2022/03/30 08:12:20;;;;;;;44.17;16.17;;;;;;;;;;5034118;28;20117;-60
2022/03/30 08:14:47;;;;;;;41.10;15.70;;;;;;;;;;5034217;28;20034;-60
2022/03/30 08:17:13;;;;;;;40.00;16.67;;;;;;;;;;5033699;28;20044;-60
2022/03/30 08:19:40;;;;;;;38.17;16.75;;;;;;;;;;5034236;28;20025;-62
2022/03/30 08:24:51;;;;;;;45.08;17.67;;;;;;;;;;5033984;28;20493;-62
2022/03/30 08:27:18;;;;;;;35.05;15.07;;;;;;;;;;5033650;28;20025;-61
2022/03/30 08:29:45;;;;;;;33.03;13.95;;;;;;;;;;5033433;28;20029;-61
2022/03/30 08:32:15;;;;;;;35.85;13.98;;;;;;;;;;5033571;28;20112;-61
2022/03/30 08:34:42;;;;;;;32.47;14.18;;;;;;;;;;5033933;28;20533;-61
2022/03/30 08:37:08;;;;;;;47.15;14.98;;;;;;;;;;5033667;28;20021;-62
2022/03/30 08:39:35;;;;;;;43.13;15.82;;;;;;;;;;5033880;28;20025;-60
2022/03/30 08:42:03;;;;;;;41.35;15.13;;;;;;;;;;5034155;28;20074;-60
2022/03/30 08:44:29;;;;;;;38.25;15.93;;;;;;;;;;5032710;28;20025;-60
2022/03/30 08:46:55;;;;;;;44.50;14.95;;;;;;;;;;5033643;28;20044;-61
2022/03/30 08:49:22;;;;;;;42.78;17.35;;;;;;;;;;5033723;28;20032;-61
2022/03/30 08:51:49;;;;;;;42.95;16.58;;;;;;;;;;5033612;28;20059;-59
2022/03/30 08:54:16;;;;;;;43.17;16.15;;;;;;;;;;5033770;28;20024;-60
2022/03/30 08:56:43;;;;;;;34.00;15.43;;;;;;;;;;5033718;28;20025;-62
2022/03/30 08:59:10;;;;;;;41.30;16.35;;;;;;;;;;5033403;28;20108;-62
2022/03/30 09:01:39;;;;;;;43.65;16.90;;;;;;;;;;5030752;28;20463;-61
2022/03/30 09:04:09;;;;;;;39.55;14.50;;;;;;;;;;5032755;28;20121;-62
2022/03/30 09:06:37;;;;;;;47.17;15.68;;;;;;;;;;5033766;28;20363;-61
2022/03/30 09:09:06;;;;;;;40.30;15.57;;;;;;;;;;5033296;28;20424;-61
2022/03/30 09:11:41;;;;;;;38.60;16.10;;;;;;;;;;5031206;28;20026;-62
2022/03/30 09:14:08;;;;;;;56.05;23.90;;;;;;;;;;5033411;28;20053;-61
2022/03/30 09:16:48;;;;;;;45.88;18.77;;;;;;;;;;5033082;28;20052;-62
2022/03/30 09:19:15;;;;;;;36.17;14.82;;;;;;;;;;5032803;28;20017;-60
2022/03/30 09:21:41;;;;;;;41.17;16.65;;;;;;;;;;5033579;28;20079;-63
2022/03/30 09:24:08;;;;;;;32.22;13.70;;;;;;;;;;5033071;28;20536;-60
2022/03/30 09:26:34;;;;;;;33.03;13.90;;;;;;;;;;5032860;28;20035;-60
2022/03/30 09:29:00;;;;;;;47.80;16.77;;;;;;;;;;5033725;28;20079;-60
2022/03/30 09:31:27;;;;;;;34.63;11.70;;;;;;;;;;5033359;28;20029;-61
2022/03/30 09:33:53;;;;;;;33.17;11.45;;;;;;;;;;5032995;28;20021;-61
2022/03/30 09:36:27;;;;;;;40.55;12.35;;;;;;;;;;5031986;28;20018;-60
2022/03/30 09:38:53;;;;;;;36.35;10.95;;;;;;;;;;5033247;28;20028;-61
2022/03/30 09:41:20;;;;;;;37.85;10.95;;;;;;;;;;5032946;28;20038;-60
2022/03/30 09:43:46;;;;;;;31.75;12.00;;;;;;;;;;5033300;28;20026;-61
2022/03/30 09:46:13;;;;;;;29.15;8.57;;;;;;;;;;5033482;28;20028;-59
2022/03/30 09:48:44;;;;;;;37.13;10.02;;;;;;;;;;5033276;28;20026;-60
2022/03/30 09:51:10;;;;;;;23.70;7.88;;;;;;;;;;5033308;28;20034;-59
2022/03/30 09:53:38;;;;;;;29.27;12.00;;;;;;;;;;5032596;28;20537;-60
2022/03/30 09:56:05;;;;;;;22.75;7.65;;;;;;;;;;5035412;28;20088;-62
2022/03/30 09:58:34;;;;;;;16.33;5.15;;;;;;;;;;5037187;28;20022;-61
2022/03/30 10:01:20;;;;;;;28.95;9.00;;;;;;;;;;5036193;28;20029;-61
2022/03/30 10:03:54;;;;;;;22.65;7.10;;;;;;;;;;5036542;28;20056;-62
2022/03/30 10:06:40;;;;;;;25.65;8.52;;;;;;;;;;5036471;28;20024;-61
2022/03/30 10:09:07;;;;;;;28.98;7.68;;;;;;;;;;5036490;28;20044;-60
2022/03/30 10:11:33;;;;;;;37.92;13.73;;;;;;;;;;5036295;28;20033;-60
2022/03/30 10:14:01;;;;;;;28.42;11.48;;;;;;;;;;5037153;28;20022;-61
2022/03/30 10:16:28;;;;;;;18.38;5.47;;;;;;;;;;5036174;28;20025;-61
2022/03/30 10:18:54;;;;;;;22.67;5.05;;;;;;;;;;5036771;28;20044;-61
2022/03/30 10:21:39;;;;;;;16.50;6.28;;;;;;;;;;5036126;28;20113;-61
2022/03/30 10:24:21;;;;;;;24.52;5.30;;;;;;;;;;5036122;28;20033;-61
2022/03/30 10:26:51;;;;;;;20.05;4.80;;;;;;;;;;5036073;28;20026;-62
2022/03/30 10:29:18;;;;;;;18.23;4.53;;;;;;;;;;5035974;28;20021;-60
2022/03/30 10:32:04;;;;;;;26.63;5.18;;;;;;;;;;5036141;28;20034;-61
2022/03/30 10:34:30;;;;;;;21.42;5.88;;;;;;;;;;5036396;28;20536;-61
2022/03/30 10:37:05;;;;;;;25.60;10.63;;;;;;;;;;5035462;28;20051;-61
2022/03/30 10:39:31;;;;;;;20.25;7.72;;;;;;;;;;5036249;28;20492;-61
2022/03/30 10:42:03;;;;;;;21.10;6.65;;;;;;;;;;5034884;28;20071;-63
2022/03/30 10:44:38;;;;;;;25.13;6.15;;;;;;;;;;5034846;28;20442;-60
2022/03/30 10:47:14;;;;;;;14.63;4.45;;;;;;;;;;5035927;28;20068;-61
2022/03/30 10:49:50;;;;;;;23.55;4.63;;;;;;;;;;5035441;28;20032;-63
2022/03/30 10:52:32;;;;;;;23.30;6.22;;;;;;;;;;5036171;28;20032;-61
2022/03/30 10:55:13;;;;;;;20.90;6.75;;;;;;;;;;5035803;28;20032;-60
2022/03/30 10:57:50;;;;;;;16.90;4.43;;;;;;;;;;5035192;28;20466;-61
2022/03/30 11:00:36;;;;;;;36.90;13.93;;;;;;;;;;5035512;28;20029;-61
2022/03/30 11:03:21;;;;;;;23.27;6.53;;;;;;;;;;5035772;28;20021;-60
2022/03/30 11:06:01;;;;;;;22.83;6.53;;;;;;;;;;5051604;28;20057;-61
2022/03/30 11:08:33;;;;;;;18.92;5.53;;;;;;;;;;5035462;28;20021;-61
2022/03/30 11:11:03;;;;;;;21.33;4.80;;;;;;;;;;5034928;28;20512;-61
2022/03/30 11:13:29;;;;;;;18.58;5.13;;;;;;;;;;5035571;28;20017;-61
2022/03/30 11:16:04;;;;;;;18.13;4.93;;;;;;;;;;5035528;28;20030;-60
2022/03/30 11:18:30;;;;;;;15.70;4.93;;;;;;;;;;5035177;28;20037;-60
2022/03/30 11:21:09;;;;;;;16.35;4.82;;;;;;;;;;5035597;28;20036;-61
2022/03/30 11:23:58;;;;;;;22.83;5.45;;;;;;;;;;5035361;28;20036;-60
2022/03/30 11:26:44;;;;;;;19.67;5.60;;;;;;;;;;5034996;28;20036;-61
2022/03/30 11:29:29;;;;;;;15.32;4.57;;;;;;;;;;5033597;28;20486;-61
2022/03/30 11:31:55;;;;;;;26.45;5.50;;;;;;;;;;5034948;28;20052;-62
2022/03/30 11:34:31;;;;;;;28.75;5.78;;;;;;;;;;5035272;28;20509;-60
2022/03/30 11:36:57;;;;;;;21.85;5.88;;;;;;;;;;5033819;28;20124;-62
2022/03/30 11:39:33;;;;;;;19.83;5.22;;;;;;;;;;5034652;28;20053;-61
2022/03/30 11:42:00;;;;;;;27.23;5.30;;;;;;;;;;5034793;28;20359;-60
2022/03/30 11:47:13;;;;;;;17.70;5.38;;;;;;;;;;5034347;28;20032;-60
2022/03/30 11:49:51;;;;;;;18.75;5.18;;;;;;;;;;5035433;28;20030;-61
2022/03/30 11:52:18;;;;;;;17.45;4.35;;;;;;;;;;5034825;28;20033;-61
2022/03/30 11:54:51;;;;;;;22.40;6.03;;;;;;;;;;5035087;28;20366;-60
2022/03/30 11:57:18;;;;;;;23.25;5.90;;;;;;;;;;5034541;28;20018;-60
2022/03/30 11:59:58;;;;;;;16.52;4.38;;;;;;;;;;5034302;28;20025;-61
2022/03/30 12:02:28;;;;;;;20.58;4.85;;;;;;;;;;5034533;28;20075;-62
2022/03/30 12:04:54;;;;;;;18.23;5.45;;;;;;;;;;5034513;28;20107;-62
2022/03/30 12:07:21;;;;;;;16.48;4.75;;;;;;;;;;5034125;28;20032;-60
2022/03/30 12:09:55;;;;;;;25.08;5.40;;;;;;;;;;5034368;28;20108;-61
2022/03/30 12:12:35;;;;;;;15.30;4.82;;;;;;;;;;5035155;28;20052;-60
2022/03/30 12:15:12;;;;;;;20.73;5.47;;;;;;;;;;5034033;28;20021;-60
2022/03/30 12:17:39;;;;;;;16.75;5.18;;;;;;;;;;5032661;28;20067;-60
2022/03/30 12:20:09;;;;;;;11.95;4.13;;;;;;;;;;5034140;28;20037;-59
2022/03/30 12:22:37;;;;;;;15.52;4.97;;;;;;;;;;5034617;28;20032;-61
2022/03/30 12:25:03;;;;;;;19.58;5.00;;;;;;;;;;5034172;28;20081;-61
2022/03/30 12:27:40;;;;;;;15.45;4.57;;;;;;;;;;5033795;28;20018;-61
2022/03/30 12:30:06;;;;;;;20.27;5.57;;;;;;;;;;5034025;28;20036;-62
2022/03/30 12:32:32;;;;;;;21.17;5.22;;;;;;;;;;5033713;28;20031;-62
2022/03/30 12:35:11;;;;;;;11.75;4.47;;;;;;;;;;5033914;28;20028;-60
2022/03/30 12:37:37;;;;;;;25.20;6.55;;;;;;;;;;5033629;28;20104;-60
2022/03/30 12:40:14;;;;;;;18.90;5.25;;;;;;;;;;5033677;28;20475;-60
2022/03/30 12:42:41;;;;;;;19.92;6.68;;;;;;;;;;5033922;28;20485;-62
2022/03/30 12:45:10;;;;;;;22.65;5.40;;;;;;;;;;5033811;28;20029;-60
2022/03/30 12:47:57;;;;;;;27.13;5.03;;;;;;;;;;5033790;28;20021;-61
2022/03/30 12:50:33;;;;;;;16.58;4.82;;;;;;;;;;5033451;28;20045;-60
2022/03/30 12:53:05;;;;;;;21.88;4.53;;;;;;;;;;5034672;28;20112;-60
2022/03/30 12:55:37;;;;;;;19.10;4.88;;;;;;;;;;5033983;28;20021;-62
2022/03/30 12:58:18;;;;;;;25.67;6.75;;;;;;;;;;5034169;28;20056;-62
2022/03/30 13:00:45;;;;;;;20.92;6.10;;;;;;;;;;5033675;28;20026;-61
2022/03/30 13:03:15;;;;;;;20.65;6.05;;;;;;;;;;5033213;28;20025;-60
2022/03/30 13:05:43;;;;;;;26.90;5.63;;;;;;;;;;5034050;28;20036;-60
2022/03/30 13:08:13;;;;;;;21.85;5.32;;;;;;;;;;5033655;28;20124;-60
2022/03/30 13:10:55;;;;;;;20.92;5.35;;;;;;;;;;5033139;28;20111;-62
2022/03/30 13:13:23;;;;;;;26.35;8.55;;;;;;;;;;5034378;28;20021;-62
2022/03/30 13:15:49;;;;;;;28.50;12.35;;;;;;;;;;5033261;28;20446;-64
2022/03/30 13:18:18;;;;;;;23.27;7.10;;;;;;;;;;5031915;28;20037;-60
2022/03/30 13:20:53;;;;;;;37.25;16.23;;;;;;;;;;5033548;28;20080;-61
2022/03/30 13:23:19;;;;;;;24.13;6.90;;;;;;;;;;5033513;28;20505;-62
2022/03/30 13:25:45;;;;;;;23.45;6.75;;;;;;;;;;5033354;28;20022;-61
2022/03/30 13:28:25;;;;;;;24.15;8.13;;;;;;;;;;5032492;28;20148;-60
2022/03/30 13:30:52;;;;;;;18.98;5.47;;;;;;;;;;5033555;28;20378;-61
2022/03/30 13:33:18;;;;;;;18.83;5.30;;;;;;;;;;5036146;28;20518;-61
2022/03/30 13:35:48;;;;;;;24.05;6.15;;;;;;;;;;5036601;28;20079;-60
2022/03/30 13:38:16;;;;;;;108.95;45.92;;;;;;;;;;5036447;28;20024;-60
2022/03/30 13:40:42;;;;;;;142.82;66.78;;;;;;;;;;5037048;28;20040;-60
2022/03/30 13:43:08;;;;;;;29.35;8.68;;;;;;;;;;5036841;28;20524;-60
2022/03/30 13:45:35;;;;;;;95.35;38.42;;;;;;;;;;5036799;28;20072;-60
2022/03/30 13:48:01;;;;;;;38.60;15.52;;;;;;;;;;5037070;28;20029;-60
2022/03/30 13:50:27;;;;;;;25.50;7.78;;;;;;;;;;5036897;28;20037;-60
2022/03/30 13:52:54;;;;;;;20.42;5.93;;;;;;;;;;5036814;28;20053;-61
2022/03/30 13:55:21;;;;;;;24.73;6.55;;;;;;;;;;5037293;28;20037;-59
2022/03/30 13:57:48;;;;;;;26.65;6.22;;;;;;;;;;5037026;28;20067;-60
2022/03/30 14:00:14;;;;;;;28.80;8.07;;;;;;;;;;5036251;28;20021;-62
2022/03/30 14:02:40;;;;;;;31.17;8.32;;;;;;;;;;5036899;28;20021;-60
2022/03/30 14:05:07;;;;;;;19.73;5.00;;;;;;;;;;5036549;28;20045;-60
2022/03/30 14:07:33;;;;;;;25.83;6.20;;;;;;;;;;5036791;28;20029;-62
2022/03/30 14:09:59;;;;;;;39.53;5.30;;;;;;;;;;5035619;28;20129;-60
2022/03/30 14:12:27;;;;;;;32.25;5.63;;;;;;;;;;5036033;28;20021;-63
2022/03/30 14:14:54;;;;;;;31.85;5.85;;;;;;;;;;5036852;28;20112;-61
2022/03/30 14:17:21;;;;;;;28.63;6.32;;;;;;;;;;5036749;28;20018;-61
2022/03/30 14:19:48;;;;;;;24.50;5.60;;;;;;;;;;5035966;28;20095;-60
2022/03/30 14:22:14;;;;;;;28.50;6.65;;;;;;;;;;5035891;28;20021;-61
2022/03/30 14:24:40;;;;;;;43.60;9.35;;;;;;;;;;5035371;28;20023;-59
2022/03/30 14:27:06;;;;;;;28.13;9.15;;;;;;;;;;5035028;28;20026;-59
2022/03/30 14:29:33;;;;;;;30.70;8.80;;;;;;;;;;5036104;28;20031;-61
2022/03/30 14:31:59;;;;;;;17.70;5.07;;;;;;;;;;5026651;28;20030;-60
2022/03/30 14:34:26;;;;;;;28.80;6.90;;;;;;;;;;5035863;28;20430;-64
2022/03/30 14:36:54;;;;;;;37.40;7.30;;;;;;;;;;5035140;28;20540;-60